Time;durP1;ratioP1;P1;durP2;ratioP2;P2;SDS_P1;SDS_P2;PMS_P1;PMS_P2;Temp;Humidity;BMP_temperature;BMP_pressure;BME280_temperature;BME280_humidity;BME280_pressure;Samples;Min_cycle;Max_cycle;Signal;HPM_P1;HPM_P2
2022/11/04 00:01:53;;;;;;;33.05;31.83;;;7.50;93.50;;;;;;4875582;29;20033;-79
2022/11/04 00:04:21;;;;;;;33.72;32.42;;;7.40;93.50;;;;;;4874324;29;20049;-78
2022/11/04 00:06:47;;;;;;;33.97;32.67;;;7.40;93.50;;;;;;4858888;29;20410;-78
2022/11/04 00:09:20;;;;;;;35.45;34.15;;;7.30;93.50;;;;;;4874400;29;20044;-79
2022/11/04 00:14:31;;;;;;;35.25;33.95;;;7.20;93.40;;;;;;4876312;29;20089;-79
2022/11/04 00:30:47;;;;;;;37.13;35.72;;;6.90;93.40;;;;;;4875681;29;20040;-79
2022/11/04 00:33:25;;;;;;;37.20;35.80;;;6.90;93.50;;;;;;4858278;29;20037;-78
2022/11/04 00:35:55;;;;;;;38.67;37.25;;;6.90;93.50;;;;;;4858380;29;20040;-79
2022/11/04 00:38:21;;;;;;;39.42;37.92;;;6.90;93.60;;;;;;4875019;29;20524;-79
2022/11/04 00:40:47;;;;;;;39.95;38.45;;;6.90;93.50;;;;;;4875114;29;20040;-80
2022/11/04 00:43:12;;;;;;;39.50;38.00;;;6.80;93.50;;;;;;4873642;29;20532;-80
2022/11/04 00:45:40;;;;;;;39.80;38.30;;;6.80;93.60;;;;;;4858582;29;20052;-76
2022/11/04 00:48:06;;;;;;;39.67;38.17;;;6.80;93.40;;;;;;4859095;29;20032;-76
2022/11/04 00:50:32;;;;;;;40.05;38.55;;;6.80;93.40;;;;;;4874000;29;20037;-76
2022/11/04 00:53:02;;;;;;;39.55;38.05;;;6.80;93.40;;;;;;4873793;29;20040;-77
2022/11/04 00:55:28;;;;;;;38.60;37.20;;;6.70;93.40;;;;;;4842577;29;20055;-76
2022/11/04 00:57:57;;;;;;;40.15;38.65;;;6.70;93.40;;;;;;4873471;29;20041;-76
2022/11/04 01:00:23;;;;;;;38.53;37.13;;;6.70;93.40;;;;;;4874933;29;20037;-78
2022/11/04 01:02:48;;;;;;;39.65;38.15;;;6.60;93.30;;;;;;4873300;29;20534;-79
2022/11/04 01:05:14;;;;;;;37.97;36.58;;;6.60;93.30;;;;;;4858005;29;20120;-79
2022/11/04 01:07:40;;;;;;;38.78;37.35;;;6.60;93.30;;;;;;4858204;29;20494;-79
2022/11/04 01:10:06;;;;;;;39.90;38.40;;;6.50;93.30;;;;;;4874807;29;20040;-79
2022/11/04 01:12:32;;;;;;;;;;;6.50;93.30;;;;;;4875030;29;20037;-79
2022/11/04 01:14:58;;;;;;;40.47;38.97;;;6.50;93.30;;;;;;4858056;29;19919;-79
2022/11/04 01:17:24;;;;;;;41.40;39.90;;;6.40;93.30;;;;;;4842466;29;20123;-79
2022/11/04 01:19:50;;;;;;;39.92;38.42;;;6.40;93.30;;;;;;4874561;29;20108;-79
2022/11/04 01:22:16;;;;;;;41.00;39.50;;;6.40;93.30;;;;;;4842515;29;20040;-79
2022/11/04 01:24:41;;;;;;;40.28;38.78;;;6.30;93.30;;;;;;4842353;29;20120;-79
2022/11/04 01:27:07;;;;;;;43.80;42.20;;;6.30;93.40;;;;;;4857553;29;20482;-79
2022/11/04 01:29:33;;;;;;;41.45;39.95;;;6.30;93.40;;;;;;4827372;29;20056;-76
2022/11/04 01:31:58;;;;;;;43.10;41.50;;;6.30;93.40;;;;;;4842352;29;20279;-76
2022/11/04 01:34:24;;;;;;;44.13;42.53;;;6.30;93.40;;;;;;4842327;29;20116;-76
2022/11/04 01:36:50;;;;;;;44.97;43.28;;;6.20;93.40;;;;;;4857550;29;20044;-76
2022/11/04 01:39:15;;;;;;;46.42;44.72;;;6.20;93.40;;;;;;4857795;29;20423;-76
2022/11/04 01:41:41;;;;;;;45.15;43.45;;;6.20;93.40;;;;;;4857707;29;20033;-76
2022/11/04 01:44:41;;;;;;;48.30;46.50;;;6.20;93.40;;;;;;4857657;29;20033;-80
2022/11/04 01:47:23;;;;;;;44.13;42.50;;;6.20;93.40;;;;;;4874601;29;20029;-80
2022/11/04 01:50:12;;;;;;;44.63;42.92;;;6.20;93.30;;;;;;4874404;29;20025;-81
2022/11/04 01:52:40;;;;;;;47.50;45.70;;;6.20;93.40;;;;;;4857444;29;20157;-82
2022/11/04 01:55:12;;;;;;;43.85;42.25;;;6.20;93.30;;;;;;4857530;29;20025;-75
2022/11/04 01:57:41;;;;;;;45.90;44.20;;;6.20;93.30;;;;;;4857439;29;20029;-80
2022/11/04 02:00:08;;;;;;;46.47;44.78;;;6.20;93.30;;;;;;4873990;29;20029;-78
2022/11/04 02:02:39;;;;;;;45.15;43.45;;;6.10;93.50;;;;;;4873968;29;20041;-78
2022/11/04 02:05:05;;;;;;;45.55;43.85;;;6.10;93.30;;;;;;4873892;29;20136;-78
2022/11/04 02:07:31;;;;;;;46.25;44.55;;;6.00;93.30;;;;;;4874873;29;20183;-78
2022/11/04 02:09:57;;;;;;;46.70;45.00;;;6.00;93.40;;;;;;4860919;29;20091;-78
2022/11/04 02:15:08;;;;;;;48.78;46.97;;;6.00;93.40;;;;;;4864017;29;20155;-78
2022/11/04 02:17:52;;;;;;;48.40;46.60;;;6.00;93.40;;;;;;4860809;29;20093;-75
2022/11/04 02:20:36;;;;;;;45.42;43.72;;;5.90;93.40;;;;;;4861094;29;20033;-76
2022/11/04 02:23:43;;;;;;;47.45;45.65;;;5.90;93.40;;;;;;4860944;29;20073;-76
2022/11/04 02:26:33;;;;;;;47.90;46.10;;;5.90;93.40;;;;;;4795321;29;20042;-76
2022/11/04 02:29:07;;;;;;;49.35;47.55;;;5.90;93.40;;;;;;4877693;29;20029;-76
2022/11/04 02:31:57;;;;;;;48.35;46.55;;;5.90;93.40;;;;;;4860826;29;20041;-75
2022/11/04 02:34:59;;;;;;;50.53;48.63;;;5.90;93.40;;;;;;4860591;29;20124;-75
2022/11/04 02:37:34;;;;;;;50.63;48.72;;;5.90;93.40;;;;;;4860468;29;20115;-79
2022/11/04 02:40:12;;;;;;;51.70;49.80;;;5.90;93.40;;;;;;4877478;29;20026;-80
2022/11/04 02:42:40;;;;;;;51.10;49.20;;;5.90;93.40;;;;;;4860427;29;20053;-79
2022/11/04 02:45:15;;;;;;;50.78;48.88;;;5.90;93.40;;;;;;4860364;29;20021;-80
2022/11/04 02:47:44;;;;;;;51.58;49.67;;;5.80;93.40;;;;;;4860455;29;20138;-80
2022/11/04 02:50:38;;;;;;;49.78;47.92;;;5.90;93.40;;;;;;4877145;29;20021;-80
2022/11/04 02:53:13;;;;;;;51.63;49.72;;;5.90;93.40;;;;;;4860733;29;20040;-80
2022/11/04 02:55:49;;;;;;;53.28;51.28;;;5.80;93.40;;;;;;4860408;29;20040;-80
2022/11/04 02:58:22;;;;;;;50.15;48.25;;;5.80;93.40;;;;;;4877149;29;20077;-81
2022/11/04 03:00:50;;;;;;;51.95;50.05;;;5.80;93.40;;;;;;4860440;29;20080;-82
2022/11/04 03:03:29;;;;;;;50.47;48.58;;;5.80;93.40;;;;;;4877207;29;20140;-81
2022/11/04 03:05:57;;;;;;;50.90;49.00;;;5.80;93.40;;;;;;4860349;29;20044;-82
2022/11/04 03:08:29;;;;;;;50.65;48.75;;;5.80;93.40;;;;;;4876882;29;20393;-82
2022/11/04 03:11:01;;;;;;;53.15;51.15;;;5.80;93.40;;;;;;4876747;29;20462;-82
2022/11/04 03:13:30;;;;;;;50.58;48.67;;;5.80;93.60;;;;;;4860322;29;20029;-82
2022/11/04 03:16:08;;;;;;;52.15;50.25;;;5.80;93.40;;;;;;4876879;29;20025;-81
2022/11/04 03:18:40;;;;;;;53.03;51.03;;;5.80;93.40;;;;;;4860171;29;20036;-81
2022/11/04 03:21:10;;;;;;;53.17;51.17;;;5.80;93.40;;;;;;4860147;29;20033;-81
2022/11/04 03:23:36;;;;;;;51.72;49.83;;;5.80;93.50;;;;;;4859900;29;20029;-82
2022/11/04 03:26:21;;;;;;;52.20;50.30;;;5.80;93.40;;;;;;4844617;29;20492;-81
2022/11/04 03:29:10;;;;;;;53.08;51.08;;;5.80;93.40;;;;;;4859809;29;20029;-82
2022/11/04 03:31:59;;;;;;;55.03;52.97;;;5.70;93.40;;;;;;4876210;29;20041;-82
2022/11/04 03:34:25;;;;;;;53.40;51.40;;;5.70;93.40;;;;;;4876684;29;20029;-80
2022/11/04 03:36:51;;;;;;;56.17;54.08;;;5.70;93.40;;;;;;4844170;29;20037;-80
2022/11/04 03:39:17;;;;;;;54.85;52.80;;;5.70;93.40;;;;;;4859853;29;20725;-78
2022/11/04 03:41:56;;;;;;;55.22;53.13;;;5.70;93.40;;;;;;4844448;29;20042;-78
2022/11/04 03:44:23;;;;;;;56.25;54.15;;;5.70;93.40;;;;;;4859471;29;20039;-79
2022/11/04 03:46:53;;;;;;;53.80;51.80;;;5.70;93.50;;;;;;4859414;29;20025;-78
2022/11/04 03:49:21;;;;;;;52.70;50.70;;;5.70;93.50;;;;;;4844724;29;20033;-78
2022/11/04 03:51:47;;;;;;;55.03;52.95;;;5.60;93.40;;;;;;4876966;29;20025;-78
2022/11/04 03:54:14;;;;;;;55.40;53.30;;;5.60;93.40;;;;;;4858983;29;20080;-78
2022/11/04 03:56:52;;;;;;;54.15;52.15;;;5.60;93.50;;;;;;4858953;29;20096;-79
2022/11/04 03:59:49;;;;;;;57.65;55.45;;;5.60;93.50;;;;;;4859253;29;20060;-78
2022/11/04 04:02:18;;;;;;;58.70;56.50;;;5.60;93.50;;;;;;4859450;29;20486;-79
2022/11/04 04:05:00;;;;;;;57.22;55.03;;;5.60;93.50;;;;;;4875580;29;20517;-79
2022/11/04 04:07:34;;;;;;;59.65;57.45;;;5.60;93.50;;;;;;4875767;29;20386;-78
2022/11/04 04:12:59;;;;;;;;;;;5.60;93.50;;;;;;4876493;29;20084;-78
2022/11/04 04:15:39;;;;;;;57.83;55.63;;;5.60;93.50;;;;;;4875811;29;20363;-79
2022/11/04 04:18:09;;;;;;;58.15;55.95;;;5.50;93.40;;;;;;4858949;29;20454;-78
2022/11/04 04:20:37;;;;;;;57.78;55.58;;;5.50;93.40;;;;;;4858805;29;20029;-78
2022/11/04 04:28:42;;;;;;;60.40;58.10;;;5.50;93.40;;;;;;4861971;29;20500;-78
2022/11/04 04:31:11;;;;;;;59.53;57.33;;;5.40;93.40;;;;;;4874986;29;20029;-82
2022/11/04 04:33:37;;;;;;;60.25;57.95;;;5.50;93.50;;;;;;4875892;29;20496;-80
2022/11/04 04:36:07;;;;;;;62.90;60.50;;;5.40;93.50;;;;;;4858745;29;20375;-81
2022/11/04 04:47:09;;;;;;;61.08;58.78;;;5.40;93.50;;;;;;4874949;29;20049;-79
2022/11/04 04:49:35;;;;;;;60.17;57.88;;;5.40;93.50;;;;;;4874975;29;20045;-79
2022/11/04 04:52:03;;;;;;;59.55;57.30;;;5.40;93.50;;;;;;4842809;29;20047;-79
2022/11/04 04:54:28;;;;;;;61.30;59.00;;;5.40;93.50;;;;;;4858148;29;20033;-79
2022/11/04 04:56:54;;;;;;;61.92;59.63;;;5.40;93.50;;;;;;4842438;29;20033;-79
2022/11/04 04:59:20;;;;;;;57.45;55.25;;;5.40;93.50;;;;;;4857990;29;20450;-80
2022/11/04 05:01:46;;;;;;;62.90;60.53;;;5.40;93.50;;;;;;4857870;29;20471;-79
2022/11/04 05:04:11;;;;;;;59.67;57.40;;;5.40;93.50;;;;;;4849266;29;20057;-79
2022/11/04 05:06:37;;;;;;;59.85;57.55;;;5.40;93.50;;;;;;4842495;29;20593;-76
2022/11/04 05:09:03;;;;;;;60.03;57.72;;;5.30;93.50;;;;;;4857800;29;20048;-76
2022/11/04 05:11:29;;;;;;;63.50;61.10;;;5.30;93.50;;;;;;4858142;29;20064;-76
2022/11/04 05:13:54;;;;;;;62.13;59.83;;;5.30;93.50;;;;;;4874734;29;20041;-76
2022/11/04 05:16:20;;;;;;;65.47;62.97;;;5.30;93.50;;;;;;4858154;29;20045;-76
2022/11/04 05:18:46;;;;;;;61.50;59.20;;;5.30;93.60;;;;;;4874651;29;20044;-79
2022/11/04 05:21:14;;;;;;;61.40;59.10;;;5.40;93.60;;;;;;4877054;29;20105;-79
2022/11/04 05:23:40;;;;;;;59.53;57.22;;;5.40;93.60;;;;;;4874873;29;20029;-80
2022/11/04 05:26:06;;;;;;;60.38;58.08;;;5.50;93.70;;;;;;4857612;29;20097;-79
2022/11/04 05:28:31;;;;;;;60.00;57.70;;;5.60;93.70;;;;;;4857563;29;20379;-79
2022/11/04 05:31:02;;;;;;;59.88;57.58;;;5.70;93.60;;;;;;4874406;29;20037;-79
2022/11/04 05:33:28;;;;;;;61.03;58.72;;;5.80;93.60;;;;;;4874353;29;20061;-79
2022/11/04 05:35:53;;;;;;;59.33;57.13;;;5.80;93.50;;;;;;4857561;29;20036;-79
2022/11/04 05:38:19;;;;;;;59.05;56.85;;;5.90;93.50;;;;;;4874300;29;20044;-79
2022/11/04 05:40:45;;;;;;;59.45;57.25;;;5.90;93.50;;;;;;4873248;29;20159;-79
2022/11/04 05:43:10;;;;;;;57.35;55.15;;;5.90;93.50;;;;;;4872210;29;20542;-79
2022/11/04 05:45:36;;;;;;;57.45;55.25;;;6.00;93.50;;;;;;4857528;29;20033;-79
2022/11/04 05:48:04;;;;;;;60.38;58.08;;;6.00;93.50;;;;;;4841853;29;20089;-79
2022/11/04 05:50:31;;;;;;;60.00;57.75;;;6.10;93.50;;;;;;4874276;29;20470;-79
2022/11/04 05:52:58;;;;;;;60.17;57.88;;;6.10;93.50;;;;;;4873824;29;20029;-79
2022/11/04 05:55:24;;;;;;;64.00;61.60;;;6.10;93.50;;;;;;4857183;29;20033;-79
2022/11/04 05:57:50;;;;;;;;;;;6.10;93.50;;;;;;4857337;29;20052;-79
2022/11/04 06:00:16;;;;;;;63.55;61.15;;;6.10;93.50;;;;;;4874077;29;19912;-76
2022/11/04 06:02:41;;;;;;;66.40;63.90;;;6.00;93.40;;;;;;4857174;29;20061;-76
2022/11/04 06:05:08;;;;;;;63.95;61.53;;;6.00;93.50;;;;;;4873633;29;20088;-76
2022/11/04 06:07:33;;;;;;;63.05;60.65;;;6.00;93.50;;;;;;4873839;29;20033;-76
2022/11/04 06:09:59;;;;;;;65.40;62.90;;;6.00;93.50;;;;;;4857273;29;20036;-76
2022/11/04 06:12:25;;;;;;;62.55;60.15;;;6.00;93.60;;;;;;4873805;29;20468;-76
2022/11/04 06:14:51;;;;;;;61.78;59.38;;;6.10;93.60;;;;;;4857166;29;20033;-76
2022/11/04 06:17:19;;;;;;;64.00;61.60;;;6.10;93.50;;;;;;4841660;29;20052;-77
2022/11/04 06:19:45;;;;;;;62.78;60.38;;;6.10;93.60;;;;;;4857040;29;20037;-76
2022/11/04 06:22:13;;;;;;;60.40;58.10;;;6.10;93.60;;;;;;4873812;29;20112;-76
2022/11/04 06:24:38;;;;;;;63.35;60.95;;;6.10;93.60;;;;;;4857137;29;20120;-76
2022/11/04 06:27:04;;;;;;;62.80;60.40;;;6.20;93.50;;;;;;4826318;29;20619;-76
2022/11/04 06:29:30;;;;;;;61.40;59.03;;;6.20;93.50;;;;;;4857014;29;20029;-75
2022/11/04 06:31:56;;;;;;;65.22;62.72;;;6.10;93.50;;;;;;4841348;29;20443;-76
2022/11/04 06:34:21;;;;;;;63.75;61.35;;;6.10;93.50;;;;;;4873579;29;20494;-76
2022/11/04 06:36:50;;;;;;;66.30;63.80;;;6.10;93.50;;;;;;4873487;29;20033;-76
2022/11/04 06:39:16;;;;;;;66.38;63.88;;;6.10;93.50;;;;;;4873824;29;20037;-78
2022/11/04 06:41:42;;;;;;;65.68;63.17;;;6.10;93.50;;;;;;4841385;29;20037;-79
2022/11/04 06:44:07;;;;;;;67.45;64.85;;;6.10;93.50;;;;;;4856834;29;20041;-78
2022/11/04 06:46:41;;;;;;;70.13;67.43;;;6.00;93.50;;;;;;4873299;29;20044;-78
2022/11/04 06:49:13;;;;;;;66.90;64.30;;;6.00;93.50;;;;;;4873497;29;20116;-78
2022/11/04 06:51:39;;;;;;;69.40;66.70;;;6.00;93.50;;;;;;4858085;29;20482;-77
2022/11/04 06:54:05;;;;;;;70.07;67.38;;;5.90;93.50;;;;;;4875931;29;20469;-79
2022/11/04 06:56:31;;;;;;;70.05;67.25;;;5.90;93.50;;;;;;4844918;29;20052;-78
2022/11/04 06:58:56;;;;;;;67.75;65.15;;;5.90;93.60;;;;;;4860064;29;20029;-76
2022/11/04 07:01:26;;;;;;;67.75;65.15;;;5.80;93.60;;;;;;4876532;29;20441;-75
2022/11/04 07:03:56;;;;;;;63.13;60.72;;;5.80;93.50;;;;;;4859486;29;20060;-76
2022/11/04 07:06:23;;;;;;;66.15;63.65;;;5.80;93.60;;;;;;4876808;29;20037;-75
2022/11/04 07:08:51;;;;;;;67.82;65.22;;;5.80;93.60;;;;;;4859454;29;20441;-76
2022/11/04 07:11:20;;;;;;;64.50;62.00;;;5.70;93.60;;;;;;4860467;29;20028;-76
2022/11/04 07:13:47;;;;;;;66.53;63.95;;;5.70;93.60;;;;;;4876674;29;20443;-76
2022/11/04 07:16:14;;;;;;;63.33;60.92;;;5.70;93.60;;;;;;4859916;29;20116;-76
2022/11/04 07:18:40;;;;;;;65.35;62.85;;;5.70;93.70;;;;;;4876741;29;20102;-76
2022/11/04 07:21:06;;;;;;;;;;;5.80;93.70;;;;;;4845208;29;20119;-75
2022/11/04 07:23:32;;;;;;;62.08;59.67;;;5.70;93.70;;;;;;4844165;29;20027;-76
2022/11/04 07:26:02;;;;;;;63.45;61.05;;;5.80;93.60;;;;;;4876248;29;20035;-76
2022/11/04 07:28:28;;;;;;;62.97;60.58;;;5.80;93.60;;;;;;4876131;29;20471;-76
2022/11/04 07:30:58;;;;;;;62.38;59.97;;;5.80;93.60;;;;;;4876268;29;20021;-75
2022/11/04 07:33:25;;;;;;;59.40;57.10;;;5.70;93.60;;;;;;4859599;29;20389;-76
2022/11/04 07:35:52;;;;;;;59.90;57.60;;;5.80;93.70;;;;;;4859093;29;20431;-76
2022/11/04 07:38:18;;;;;;;60.97;58.67;;;5.70;93.60;;;;;;4875691;29;20454;-77
2022/11/04 07:40:44;;;;;;;59.05;56.75;;;5.70;93.70;;;;;;4875989;29;20033;-76
2022/11/04 07:43:10;;;;;;;64.72;62.22;;;5.70;93.70;;;;;;4859076;29;20440;-76
2022/11/04 07:45:36;;;;;;;66.18;63.67;;;5.80;93.70;;;;;;4843590;29;20079;-75
2022/11/04 07:48:02;;;;;;;61.70;59.30;;;5.80;93.70;;;;;;4859457;29;20032;-76
2022/11/04 07:50:27;;;;;;;64.82;62.33;;;5.90;93.80;;;;;;4859054;29;20165;-76
2022/11/04 07:52:53;;;;;;;64.13;61.67;;;5.90;93.70;;;;;;4859034;29;20482;-76
2022/11/04 07:55:19;;;;;;;63.60;61.20;;;6.00;93.70;;;;;;4875780;29;20478;-76
2022/11/04 07:57:46;;;;;;;62.58;60.17;;;6.00;93.70;;;;;;4875411;29;20037;-76
2022/11/04 08:00:14;;;;;;;61.95;59.55;;;6.00;93.80;;;;;;4858375;29;20129;-76
2022/11/04 08:02:41;;;;;;;53.90;51.83;;;6.10;93.80;;;;;;4875365;29;20041;-76
2022/11/04 08:05:07;;;;;;;51.53;49.53;;;6.20;93.90;;;;;;4867659;29;20383;-76
2022/11/04 08:07:33;;;;;;;48.88;47.05;;;6.40;94.00;;;;;;4858684;29;20064;-76
2022/11/04 08:09:59;;;;;;;48.30;46.47;;;6.50;94.00;;;;;;4858763;29;20029;-76
2022/11/04 08:12:26;;;;;;;48.47;46.65;;;6.70;94.00;;;;;;4874023;29;20038;-76
2022/11/04 08:14:52;;;;;;;47.33;45.53;;;6.80;93.90;;;;;;4874090;29;20390;-76
2022/11/04 08:17:18;;;;;;;47.53;45.72;;;7.00;93.90;;;;;;4874029;29;20029;-76
2022/11/04 08:19:44;;;;;;;48.28;46.47;;;7.00;93.80;;;;;;4858871;29;20486;-76
2022/11/04 08:22:09;;;;;;;47.00;45.20;;;7.00;93.70;;;;;;4858916;29;20123;-75
2022/11/04 08:24:35;;;;;;;47.65;45.85;;;7.00;93.70;;;;;;4859239;29;20058;-76
2022/11/04 08:27:03;;;;;;;49.28;47.38;;;6.90;93.70;;;;;;4874174;29;20033;-75
2022/11/04 08:29:29;;;;;;;45.60;43.90;;;6.90;93.80;;;;;;4858520;29;20033;-75
2022/11/04 08:31:54;;;;;;;41.28;39.75;;;6.90;93.80;;;;;;4875547;29;20031;-75
2022/11/04 08:34:20;;;;;;;38.10;36.70;;;7.00;94.00;;;;;;4858916;29;20496;-76
2022/11/04 08:36:46;;;;;;;34.85;33.55;;;7.10;94.20;;;;;;4873571;29;20051;-76
2022/11/04 08:39:12;;;;;;;37.42;36.03;;;7.50;94.60;;;;;;4873188;29;20084;-76
2022/11/04 08:41:40;;;;;;;37.58;36.17;;;7.80;94.10;;;;;;4858435;29;20104;-76
2022/11/04 08:44:07;;;;;;;38.60;37.10;;;7.80;93.80;;;;;;4858007;29;20116;-76
2022/11/04 08:46:37;;;;;;;36.80;35.40;;;7.80;93.70;;;;;;4874433;29;20495;-75
2022/11/04 08:49:03;;;;;;;36.30;34.90;;;7.80;93.70;;;;;;4874463;29;20121;-76
2022/11/04 08:51:31;;;;;;;35.72;34.40;;;7.80;93.80;;;;;;4842343;29;20464;-75
2022/11/04 08:53:57;;;;;;;33.53;32.22;;;7.80;93.90;;;;;;4857690;29;20025;-80
2022/11/04 08:56:27;;;;;;;28.63;27.52;;;7.90;94.10;;;;;;4873722;29;20033;-81
2022/11/04 08:58:53;;;;;;;19.17;18.38;;;8.00;94.40;;;;;;4858315;29;20029;-81
2022/11/04 09:01:20;;;;;;;12.13;11.63;;;8.60;95.40;;;;;;4857890;29;20418;-80
2022/11/04 09:03:47;;;;;;;11.50;11.00;;;9.60;95.90;;;;;;4874269;29;20037;-79
2022/11/04 09:06:16;;;;;;;12.15;11.65;;;10.50;95.80;;;;;;4873881;29;20151;-79
2022/11/04 09:08:42;;;;;;;7.57;7.18;;;11.30;95.60;;;;;;4874264;29;20033;-78
2022/11/04 09:11:11;;;;;;;9.00;8.60;;;12.00;95.30;;;;;;4857636;29;20104;-78
2022/11/04 09:13:37;;;;;;;7.28;6.88;;;12.60;95.10;;;;;;4873822;29;20413;-79
2022/11/04 09:16:04;;;;;;;6.55;6.15;;;13.20;94.90;;;;;;4873991;29;20066;-79
2022/11/04 09:18:30;;;;;;;5.10;4.75;;;13.70;94.90;;;;;;4873888;29;20056;-79
2022/11/04 09:20:59;;;;;;;4.30;4.00;;;14.20;94.90;;;;;;4874028;29;20040;-79
2022/11/04 09:23:25;;;;;;;3.95;3.65;;;14.60;94.70;;;;;;4874285;29;20041;-79
2022/11/04 09:25:51;;;;;;;3.45;3.17;;;14.70;94.00;;;;;;4873712;29;20029;-78
2022/11/04 09:28:17;;;;;;;4.13;3.83;;;14.30;93.50;;;;;;4857171;29;20368;-79
2022/11/04 09:30:42;;;;;;;5.20;4.90;;;13.70;93.30;;;;;;4841893;29;20029;-78
2022/11/04 09:33:08;;;;;;;2.47;2.28;;;13.50;94.30;;;;;;4857079;29;20055;-78
2022/11/04 09:35:34;;;;;;;2.22;2.03;;;14.00;95.30;;;;;;4857237;29;20057;-79
2022/11/04 09:38:00;;;;;;;1.38;1.27;;;14.60;95.60;;;;;;4856554;29;20610;-78
2022/11/04 09:40:27;;;;;;;0.85;0.85;;;15.30;95.50;;;;;;4856963;29;20059;-79
2022/11/04 09:43:16;;;;;;;0.60;0.60;;;15.90;95.40;;;;;;4873661;29;20032;-79
2022/11/04 09:45:43;;;;;;;0.45;0.45;;;16.50;95.20;;;;;;4856854;29;20513;-78
2022/11/04 09:48:32;;;;;;;0.40;0.40;;;17.10;95.00;;;;;;4856489;29;20455;-79
2022/11/04 09:51:02;;;;;;;0.30;0.30;;;17.60;94.90;;;;;;4857102;29;20386;-79
2022/11/04 09:53:46;;;;;;;0.10;0.10;;;17.90;94.90;;;;;;4856681;29;20522;-72
2022/11/04 09:56:24;;;;;;;0.00;0.00;;;18.20;94.90;;;;;;4874590;29;20024;-79
2022/11/04 09:58:51;;;;;;;0.00;0.00;;;18.20;94.50;;;;;;4873284;29;20017;-77
2022/11/04 10:01:29;;;;;;;0.00;0.00;;;18.00;94.20;;;;;;4858215;29;20038;-81
2022/11/04 10:04:20;;;;;;;0.10;0.10;;;17.70;94.30;;;;;;4858098;29;20029;-79
2022/11/04 10:07:00;;;;;;;0.00;0.00;;;17.30;94.20;;;;;;4859935;29;20654;-78
2022/11/04 10:10:09;;;;;;;0.17;0.17;;;16.80;94.10;;;;;;4878641;29;20029;-79
2022/11/04 10:12:45;;;;;;;0.20;0.20;;;16.20;94.20;;;;;;4860112;29;20025;-80
2022/11/04 10:15:42;;;;;;;0.20;0.20;;;15.60;94.00;;;;;;4859541;29;20029;-78
2022/11/04 10:18:34;;;;;;;0.50;0.50;;;15.10;94.00;;;;;;4874980;29;20022;-79
2022/11/04 10:21:08;;;;;;;0.80;0.80;;;14.60;93.90;;;;;;4858397;29;20466;-80
2022/11/04 10:23:43;;;;;;;0.60;0.60;;;14.30;94.60;;;;;;4858561;29;20029;-80
2022/11/04 10:26:43;;;;;;;0.30;0.30;;;14.50;95.20;;;;;;4862716;29;20030;-77
2022/11/04 10:29:37;;;;;;;0.20;0.20;;;15.20;95.70;;;;;;4864899;29;20029;-78
2022/11/04 10:32:13;;;;;;;0.10;0.10;;;16.00;96.00;;;;;;4866257;29;20048;-78
2022/11/04 10:35:06;;;;;;;0.10;0.10;;;16.60;95.60;;;;;;4854647;29;20029;-77
2022/11/04 10:37:33;;;;;;;0.00;0.00;;;17.30;95.60;;;;;;4857983;29;20040;-77
2022/11/04 10:40:35;;;;;;;0.00;0.00;;;17.80;95.20;;;;;;4866372;29;20033;-79
2022/11/04 10:43:07;;;;;;;0.00;0.00;;;17.60;94.50;;;;;;4859934;29;20033;-78
2022/11/04 10:45:41;;;;;;;0.00;0.00;;;17.20;94.20;;;;;;4860497;29;20037;-79
2022/11/04 10:48:17;;;;;;;0.00;0.00;;;16.60;93.90;;;;;;4861609;29;20017;-75
2022/11/04 10:50:46;;;;;;;;;;;16.10;94.10;;;;;;4875914;29;20021;-76
2022/11/04 10:53:15;;;;;;;0.00;0.00;;;15.70;94.10;;;;;;4849836;29;19921;-76
2022/11/04 10:55:58;;;;;;;0.00;0.00;;;15.40;94.20;;;;;;4860779;29;20088;-77
2022/11/04 10:58:28;;;;;;;0.10;0.10;;;15.10;94.10;;;;;;4877739;29;20025;-75
2022/11/04 11:00:56;;;;;;;0.20;0.20;;;14.90;94.10;;;;;;4877779;29;20028;-76
2022/11/04 11:03:31;;;;;;;0.20;0.20;;;14.60;94.00;;;;;;4861520;29;20450;-76
2022/11/04 11:06:13;;;;;;;0.30;0.30;;;14.40;94.10;;;;;;4877886;29;20493;-77
2022/11/04 11:08:41;;;;;;;0.20;0.20;;;14.20;94.20;;;;;;4861819;29;20029;-79
2022/11/04 11:11:07;;;;;;;0.30;0.30;;;14.00;94.00;;;;;;4862799;29;20040;-79
2022/11/04 11:13:37;;;;;;;0.30;0.30;;;13.80;94.10;;;;;;4862689;29;20064;-78
2022/11/04 11:16:18;;;;;;;0.25;0.25;;;13.80;94.40;;;;;;4865319;29;20053;-78
2022/11/04 11:18:47;;;;;;;0.20;0.20;;;13.80;94.50;;;;;;4878074;29;20029;-77
2022/11/04 11:21:20;;;;;;;0.10;0.10;;;14.00;94.60;;;;;;4878192;29;20112;-75
2022/11/04 11:23:53;;;;;;;0.10;0.10;;;14.00;94.40;;;;;;4879878;29;20076;-77
2022/11/04 11:26:30;;;;;;;0.10;0.10;;;14.00;94.30;;;;;;4879603;29;20037;-78
2022/11/04 11:28:58;;;;;;;;;;;13.90;94.40;;;;;;4862466;29;20029;-77
2022/11/04 11:31:25;;;;;;;0.10;0.10;;;14.00;94.60;;;;;;4877720;29;20280;-77
2022/11/04 11:34:13;;;;;;;0.10;0.10;;;14.10;94.60;;;;;;4878213;29;20411;-78
2022/11/04 11:36:39;;;;;;;0.20;0.20;;;14.10;94.70;;;;;;4861322;29;20033;-79
2022/11/04 11:39:12;;;;;;;0.10;0.10;;;14.40;95.10;;;;;;4848062;29;20068;-79
2022/11/04 11:41:49;;;;;;;0.10;0.10;;;15.00;95.50;;;;;;4862122;29;20148;-81
2022/11/04 11:44:33;;;;;;;0.03;0.03;;;15.70;95.60;;;;;;4862212;29;20029;-78
2022/11/04 11:47:04;;;;;;;0.00;0.00;;;16.30;95.50;;;;;;4880160;29;20029;-79
2022/11/04 11:49:33;;;;;;;0.00;0.00;;;16.70;95.10;;;;;;4861425;29;20037;-78
2022/11/04 11:52:29;;;;;;;0.00;0.00;;;16.70;94.60;;;;;;4877911;29;20032;-82
2022/11/04 11:55:17;;;;;;;0.00;0.00;;;16.50;94.50;;;;;;4876966;29;20029;-78
2022/11/04 11:58:04;;;;;;;0.00;0.00;;;16.30;94.50;;;;;;4876782;29;20025;-80
2022/11/04 12:00:35;;;;;;;0.00;0.00;;;16.10;94.40;;;;;;4878100;29;20031;-80
2022/11/04 12:03:19;;;;;;;0.00;0.00;;;15.90;94.60;;;;;;4876091;29;20128;-80
2022/11/04 12:06:13;;;;;;;0.00;0.00;;;15.80;94.80;;;;;;4864517;29;20049;-79
2022/11/04 12:08:51;;;;;;;0.00;0.00;;;15.80;95.00;;;;;;4861166;29;20018;-76
2022/11/04 12:11:47;;;;;;;0.00;0.00;;;16.00;95.00;;;;;;4870338;29;20029;-77
2022/11/04 12:14:50;;;;;;;0.00;0.00;;;15.90;94.70;;;;;;4858501;29;20045;-76
2022/11/04 12:17:34;;;;;;;0.00;0.00;;;15.90;94.70;;;;;;4859261;29;20038;-75
2022/11/04 12:20:04;;;;;;;0.00;0.00;;;15.90;94.60;;;;;;4863396;29;20022;-75
2022/11/04 12:22:42;;;;;;;0.00;0.00;;;15.70;94.40;;;;;;4842156;29;20408;-76
2022/11/04 12:25:32;;;;;;;0.00;0.00;;;15.50;94.30;;;;;;4841482;29;20040;-81
2022/11/04 12:28:09;;;;;;;0.20;0.10;;;15.30;94.30;;;;;;4840823;29;20039;-81
2022/11/04 12:30:53;;;;;;;0.00;0.00;;;15.10;94.40;;;;;;4841908;29;20033;-78
2022/11/04 12:33:45;;;;;;;0.00;0.00;;;15.00;94.50;;;;;;4841429;29;20034;-80
2022/11/04 12:36:27;;;;;;;0.00;0.00;;;14.90;94.50;;;;;;4841253;29;20037;-77
2022/11/04 12:39:30;;;;;;;0.00;0.00;;;14.80;94.30;;;;;;4841230;29;20386;-74
2022/11/04 12:42:20;;;;;;;0.00;0.00;;;14.50;94.20;;;;;;4840275;29;20112;-72
2022/11/04 12:45:30;;;;;;;0.00;0.00;;;14.30;94.20;;;;;;4857236;29;20145;-77
2022/11/04 12:48:08;;;;;;;0.10;0.10;;;14.20;94.30;;;;;;4854879;29;20041;-77
2022/11/04 12:50:53;;;;;;;0.00;0.00;;;14.20;94.50;;;;;;4858348;29;20041;-80
2022/11/04 12:54:05;;;;;;;0.00;0.00;;;14.40;94.80;;;;;;4842059;29;20036;-76
2022/11/04 12:56:39;;;;;;;0.00;0.00;;;14.80;94.90;;;;;;4857212;29;20042;-77
2022/11/04 12:59:25;;;;;;;0.00;0.00;;;14.90;94.60;;;;;;4857810;29;20045;-78
2022/11/04 13:02:00;;;;;;;0.00;0.00;;;15.00;94.40;;;;;;4867609;29;20066;-78
2022/11/04 13:04:37;;;;;;;0.00;0.00;;;14.80;94.30;;;;;;4859467;29;20025;-76
2022/11/04 13:07:11;;;;;;;0.00;0.00;;;14.80;94.40;;;;;;4875588;29;20474;-77
2022/11/04 13:09:57;;;;;;;0.00;0.00;;;14.70;94.40;;;;;;4859463;29;20036;-80
2022/11/04 13:12:34;;;;;;;0.00;0.00;;;14.60;94.40;;;;;;4876278;29;20035;-80
2022/11/04 13:15:03;;;;;;;0.00;0.00;;;14.60;94.40;;;;;;4875938;29;20041;-75
2022/11/04 13:17:38;;;;;;;0.00;0.00;;;14.50;94.50;;;;;;4875176;29;20037;-77
2022/11/04 13:20:13;;;;;;;0.05;0.05;;;14.50;94.70;;;;;;4860017;29;20086;-79
2022/11/04 13:22:45;;;;;;;0.00;0.00;;;14.50;94.30;;;;;;4875873;29;20395;-80
2022/11/04 13:25:36;;;;;;;0.00;0.00;;;14.30;94.10;;;;;;4875712;29;20431;-80
2022/11/04 13:28:02;;;;;;;0.10;0.10;;;14.00;94.00;;;;;;4863741;29;20033;-79
2022/11/04 13:30:59;;;;;;;0.10;0.10;;;13.80;94.00;;;;;;4857349;29;20038;-80
2022/11/04 13:33:39;;;;;;;0.35;0.35;;;13.60;94.10;;;;;;4840376;29;20101;-80
2022/11/04 13:36:27;;;;;;;0.40;0.40;;;13.40;94.10;;;;;;4873977;29;20100;-77
2022/11/04 13:39:07;;;;;;;0.40;0.40;;;13.30;94.30;;;;;;4861765;29;20365;-80
2022/11/04 13:41:57;;;;;;;0.30;0.30;;;13.30;94.60;;;;;;4879528;29;20025;-79
2022/11/04 13:44:29;;;;;;;0.40;0.40;;;13.40;94.60;;;;;;4879682;29;20037;-75
2022/11/04 13:46:58;;;;;;;0.50;0.50;;;13.40;94.60;;;;;;4878920;29;20084;-80